logo
Search for airport 
image banner adimage banner adimage banner ad
image banner ad

SNFF - Feijo

Located in Fortaleza, Brazil

ICAO - SNFF, IATA -

Data provided by Airmate  

General information

Coordinates: S3°48'34" W38°37'1"
Elevation is 82 feet MSL.
Magnetic variation is -20.770086193° East
View others Airports in Ceará

Operational data

Special qualification required
Current time UTC:
Current local time:
Weather at : SBFZ - Pinto Martins ( 10 km )
TAF: TAF SBFZ 171439Z 1718/1818 12015KT 9999 FEW030 TN24/1809Z TX30/1817Z BECMG 1723/1801 18005KT TEMPO 1801/1807 4000 RA BKN010 BECMG 1810/1812 14015KT RMK PHI
View NOTAMs / SUP AIP / TFR affecting this airport [VIEW]
Communications frequencies: [VIEW]

Runways:

RWY identifierQFULength (ft)Width (ft)SurfaceLDA (ft)
13180459ASPH
31180459ASPH

Airport contact information

Address: Fortaleza Brazil

Satellite view of SNFF